Sidney, TX

8:54 PM CDT on August 28, 2014 (GMT -0500)
Coleman Municipal | Change Station
CLOSE
Current Station
Airport
Location: Coleman,
Elevation: 1696 ft
Nearby Weather Stations

Elev 1696 ft 31.84 °N, 99.41 °W | Updated 19 minutes ago

Clear
Clear
87 °F
Feels Like 85 °F
N
8
Wind Variable Wind from SE

Today
High -- | Low -- °F
--% Chance of Precip.
Yesterday
High -- | Low -- °F
Precip. -- in
7:08 AM 8:04 PM
Waxing Crescent, 11% visible
Pressure 29.86 in
Visibility 10.0 miles
Clouds Clear
Heat Index 85 °F
Dew Point 54 °F
Humidity 32%
Rainfall 0.00 in
Snow Depth Not available.
UV 0 out of 12
Pollen 9.10 out of 12
Air Quality Not available.
Flu Activity Not available.
METAR KCOM 290135Z AUTO 13007KT 10SM CLR 31/12 A2986 RMK AO2 T03070122

More Conditions Fewer Conditions

Pressure 29.86 in
Visibility 10.0 miles
Clouds Clear
Heat Index 85 °F
Dew Point 54 °F
Humidity 32%
Rainfall 0.00 in
Snow Depth Not available.
UV 0 out of 12
Pollen 9.10 out of 12
Air Quality Not available.
Flu Activity Not available.
METAR KCOM 290135Z AUTO 13007KT 10SM CLR 31/12 A2986 RMK AO2 T03070122

More Conditions Fewer Conditions

Nowcast | as of 8:39 PM CDT on August 28, 2014

A complex of showers and thunderstorms will move eastward across north central Texas tonight. Showers and storms will be possible over the next several hours...primarily north of Interstate 20 and west of Interstate 35...and will be capable of producing gusty winds...cloud to ground lightning...and localized heavy rain. Temperatures will continue to fall into the low 80s over the next few hours with southeast winds around 10 mph.

×

10-Day Weather Forecast

Almanac

Astronomy

Aug. 28, 2014 Rise Set
Actual Time 7:08 AM CDT 8:04 PM CDT
Civil Twilight 6:42 AM CDT 8:29 PM CDT
Nautical Twilight 6:13 AM CDT 8:58 PM CDT
Astronomical Twilight 5:42 AM CDT 9:28 PM CDT
Moon 9:49 AM CDT (8/28) 9:43 PM CDT (8/28)
Length of Visible Light 13h 46m
Length of Day
12h 55m
Tomorrow will be 1m 52s shorter.
Waxing Crescent, 11% of the Moon is Illuminated
Today
Waxing Crescent
Sep 2
First Quarter
Sep 8
Full
Sep 15
Last Quarter
Sep 24
New

Today's Extremes

State Highs State Lows

Community

WunderPhotos

Upload Photos

1,748,131 photos uploaded!

Nearby

Snow Depth

Station Depth Elevation
No new snow has been reported.

Earthquake Activity

City Distance Mag. Time & Date
No recent earthquake activity has been reported nearby.
Minimum magnitude displayed is 2.5.

Coastal Water Temperatures

Place Temperature
No Stations Reporting

Nearby Weather Stations